PRG weather

Václav Havel Airport Prague
Prague, Prague (capital city), Czechia

Public forecast

Using degrees Celsius for public forecast. Weather courtesy of forecast.io.

METAR (pilot weather report)

Retrieved 2017/03/29 09:00 UTC (9 minutes ago):

LKPR 290900Z 26008KT 240V300 CAVOK 15/06 Q1024 NOSIG

TAF (pilot weather forecast)

Forecast is more than 12 hours old.

Retrieved 2017/03/28 12:12 UTC (21 hours ago):

TAF LKPR 281100Z 2812/2918 23010KT CAVOK TEMPO 2821/2902 24016KT TEMPO 2908/2918 28016G26KT BECMG 2910/2912 SCT036 TEMPO 2912/2918 BKN033